»·PEaware :: ASA877 KSFO-KSNA

ASA877 :: KSFO-KSNA

FLIGHT INFORMATION

Flight Status: Arrived
Operator:
Alaska Airlines
More flights by this operator :: More flights under this callsign
Pilot: Anthony T. (15846)
Aircraft: BOEING 737-800
(B738)
More flights by this aircraft type
Origin: KSFO San Francisco Intl
United States
Destination: KSNA John Wayne-Orange Co
United States
More flights between these airports :: More routes between these airports
Route: +OFFSH1 MCKEY TILLT TILLT2
File this flight plan on PilotEdge
Remarks:
Altitude:
(Current/Filed)
27,000ft
Speed:
(Current/Filed)
315kts
Departed: 10-Feb-19 04:31 PM
Arrived: 10-Feb-19 05:33 PM
Distance/Time
Traveled:
323nm/1:01
Distance/Time
To Go:
Arrived

Flight Plot

Page will automatically refresh every two minutes.

Flight plan parsing failed; only flown route is shown


Map Options




Map Legend


Flown Route
Filed Route
Departure Airport
Arrival Airport
Navaid (VOR, NDB)
Fix

Horizontal Profiles

Position Reports

Time Latitude Longitude Heading Altitude Ground
Speed
10-Feb-19 16:19 37.611683 -122.385970 34 31ft 0kts
10-Feb-19 16:21 37.611683 -122.385970 34 31ft 0kts
10-Feb-19 16:22 37.611683 -122.385970 34 31ft 0kts
10-Feb-19 16:23 37.611683 -122.385970 34 31ft 0kts
10-Feb-19 16:23 37.611683 -122.385971 34 31ft 0kts
10-Feb-19 16:24 37.611459 -122.386605 124 31ft 0kts
10-Feb-19 16:25 37.611459 -122.386605 124 31ft 0kts
10-Feb-19 16:26 37.611459 -122.386605 124 31ft 0kts
10-Feb-19 16:27 37.611113 -122.385833 118 31ft 20kts
10-Feb-19 16:28 37.608955 -122.383661 121 31ft 0kts
10-Feb-19 16:29 37.608884 -122.383500 118 31ft 6kts
10-Feb-19 16:30 37.633646 -122.366467 8 898ft 213kts
10-Feb-19 16:31 37.701082 -122.368433 331 3939ft 250kts
10-Feb-19 16:32 37.707626 -122.446921 241 6925ft 274kts
10-Feb-19 16:33 37.660315 -122.527048 237 9927ft 296kts
10-Feb-19 16:34 37.608924 -122.612082 237 10653ft 302kts
10-Feb-19 16:35 37.551216 -122.707296 236 12715ft 349kts
10-Feb-19 16:36 37.457827 -122.728634 151 14747ft 377kts
10-Feb-19 16:37 37.353583 -122.688618 166 16799ft 399kts
10-Feb-19 16:38 37.241420 -122.657337 166 18852ft 419kts
10-Feb-19 16:39 37.122003 -122.624221 166 20949ft 453kts
10-Feb-19 16:40 36.994450 -122.588897 167 23042ft 475kts
10-Feb-19 16:41 36.861495 -122.552300 167 25288ft 496kts
10-Feb-19 16:42 36.723072 -122.514297 168 27175ft 526kts
10-Feb-19 16:43 36.569143 -122.472183 168 27175ft 580kts
10-Feb-19 16:44 36.413464 -122.416651 149 27286ft 576kts
10-Feb-19 16:45 36.312474 -122.272240 122 27328ft 562kts
10-Feb-19 16:46 36.210957 -122.123834 125 27316ft 563kts
10-Feb-19 16:47 36.109525 -121.976884 125 27319ft 563kts
10-Feb-19 16:48 36.007773 -121.830108 125 27322ft 563kts
10-Feb-19 16:49 35.905942 -121.683834 125 27325ft 563kts
10-Feb-19 16:50 35.804248 -121.538411 125 27274ft 562kts
10-Feb-19 16:51 35.701624 -121.392248 125 27245ft 562kts
10-Feb-19 16:52 35.598516 -121.246055 125 27243ft 563kts
10-Feb-19 16:53 35.494398 -121.099190 124 27240ft 564kts
10-Feb-19 16:54 35.411287 -120.941651 136 27235ft 574kts
10-Feb-19 16:55 35.286237 -120.820076 133 27253ft 572kts
10-Feb-19 16:56 35.166371 -120.691151 133 27255ft 572kts
10-Feb-19 16:57 35.046159 -120.563660 138 27237ft 575kts
10-Feb-19 16:58 34.913065 -120.454255 144 27925ft 578kts
10-Feb-19 16:59 34.781243 -120.347953 146 28844ft 576kts
10-Feb-19 17:00 34.647237 -120.240220 146 29662ft 575kts
10-Feb-19 17:01 34.513413 -120.133333 146 27374ft 558kts
10-Feb-19 17:02 34.386489 -120.032256 145 27178ft 541kts
10-Feb-19 17:03 34.260588 -119.932320 146 27179ft 541kts
10-Feb-19 17:04 34.133965 -119.832251 146 27182ft 540kts
10-Feb-19 17:05 34.029559 -119.708624 104 27172ft 518kts
10-Feb-19 17:06 33.958520 -119.553054 115 25660ft 514kts
10-Feb-19 17:07 33.886102 -119.408717 115 23425ft 495kts
10-Feb-19 17:08 33.818117 -119.270883 115 20698ft 432kts
10-Feb-19 17:09 33.757539 -119.148327 114 17821ft 383kts
10-Feb-19 17:10 33.700864 -119.033828 115 15059ft 402kts
10-Feb-19 17:11 33.642327 -118.916141 117 12346ft 390kts
10-Feb-19 17:12 33.587790 -118.806872 118 11118ft 340kts
10-Feb-19 17:13 33.559127 -118.696224 97 9852ft 334kts
10-Feb-19 17:14 33.541011 -118.584883 97 9111ft 308kts
10-Feb-19 17:15 33.524512 -118.483144 97 9119ft 298kts
10-Feb-19 17:16 33.519512 -118.380991 88 8188ft 296kts
10-Feb-19 17:17 33.533313 -118.284921 65 5723ft 277kts
10-Feb-19 17:18 33.561180 -118.197777 65 5101ft 274kts
10-Feb-19 17:19 33.599958 -118.119795 52 5021ft 270kts
10-Feb-19 17:20 33.635184 -118.056467 50 5009ft 193kts
10-Feb-19 17:21 33.665371 -118.002274 51 5015ft 196kts
10-Feb-19 17:22 33.698365 -117.951675 26 5046ft 188kts
10-Feb-19 17:23 33.743572 -117.919293 26 5012ft 189kts
10-Feb-19 17:24 33.789079 -117.886785 26 5009ft 189kts
10-Feb-19 17:25 33.834256 -117.854856 26 5009ft 186kts
10-Feb-19 17:26 33.874237 -117.816058 78 4093ft 193kts
10-Feb-19 17:27 33.861370 -117.758406 159 3002ft 180kts
10-Feb-19 17:28 33.815948 -117.779817 210 2991ft 181kts
10-Feb-19 17:29 33.773158 -117.807013 211 2086ft 165kts
10-Feb-19 17:30 33.732709 -117.832696 211 1199ft 158kts
10-Feb-19 17:31 33.694677 -117.856834 210 384ft 153kts
10-Feb-19 17:32 33.667593 -117.873400 142 64ft 40kts

Navigation Log

Ident Type
Flight plan parsing failed, navigation log unavailable